Time;durP1;ratioP1;P1;durP2;ratioP2;P2;SDS_P1;SDS_P2;PMS_P1;PMS_P2;Temp;Humidity;BMP_temperature;BMP_pressure;BME280_temperature;BME280_humidity;BME280_pressure;Samples;Min_cycle;Max_cycle;Signal;HPM_P1;HPM_P2
2023/10/05 00:04:29;;;;;;;19.33;5.80;;;11.60;99.90;;;;;;5098686;28;20048;-63
2023/10/05 00:06:54;;;;;;;19.77;6.85;;;11.50;99.90;;;;;;5095919;28;20136;-62
2023/10/05 00:09:21;;;;;;;;;;;11.50;99.90;;;;;;5094454;28;20135;-63
2023/10/05 00:11:47;;;;;;;17.92;5.75;;;11.50;99.90;;;;;;5101611;28;20383;-63
2023/10/05 00:14:13;;;;;;;14.55;5.57;;;11.50;99.90;;;;;;5096512;28;20115;-63
2023/10/05 00:16:39;;;;;;;;;;;11.50;99.90;;;;;;5102393;28;20146;-63
2023/10/05 00:19:13;;;;;;;20.27;6.30;;;11.50;99.90;;;;;;5086967;28;20022;-61
2023/10/05 00:21:56;;;;;;;19.80;6.80;;;11.50;99.90;;;;;;5087317;28;20036;-58
2023/10/05 00:24:46;;;;;;;16.25;5.57;;;11.50;99.90;;;;;;5083558;28;20048;-62
2023/10/05 00:27:09;;;;;;;15.63;5.95;;;11.40;99.90;;;;;;5082572;28;20105;-63
2023/10/05 00:29:41;;;;;;;;;;;11.40;99.90;;;;;;5082005;28;20044;-63
2023/10/05 00:35:24;;;;;;;21.30;5.68;;;11.40;99.90;;;;;;5061877;28;20049;-63
2023/10/05 00:37:51;;;;;;;15.60;5.72;;;11.40;99.90;;;;;;5085444;28;20044;-62
2023/10/05 00:43:12;;;;;;;17.60;6.60;;;11.40;99.90;;;;;;5082862;28;20483;-61
2023/10/05 00:45:39;;;;;;;16.50;5.80;;;11.30;99.90;;;;;;5089994;28;20111;-63
2023/10/05 00:48:13;;;;;;;20.65;7.80;;;11.40;99.90;;;;;;5080429;28;20131;-62
2023/10/05 00:50:40;;;;;;;20.67;6.60;;;11.40;99.90;;;;;;5081243;28;20044;-62
2023/10/05 00:53:08;;;;;;;15.60;5.57;;;11.40;99.90;;;;;;5083696;28;20051;-60
2023/10/05 00:55:35;;;;;;;20.67;6.40;;;11.40;99.90;;;;;;5089818;28;20134;-63
2023/10/05 00:58:06;;;;;;;21.35;5.80;;;11.40;99.90;;;;;;5081822;28;20041;-62
2023/10/05 01:00:43;;;;;;;15.98;6.20;;;11.50;99.90;;;;;;5088567;28;20058;-62
2023/10/05 01:03:27;;;;;;;20.38;5.85;;;11.40;99.90;;;;;;5080684;28;20036;-63
2023/10/05 01:06:11;;;;;;;20.90;6.85;;;11.40;99.90;;;;;;5089283;28;20051;-62
2023/10/05 01:08:49;;;;;;;20.65;8.07;;;11.30;99.90;;;;;;5085937;28;20075;-64
2023/10/05 01:11:19;;;;;;;22.63;7.32;;;11.30;99.90;;;;;;5074454;28;20093;-59
2023/10/05 01:13:50;;;;;;;19.27;7.23;;;11.30;99.90;;;;;;5084954;28;20036;-63
2023/10/05 01:16:19;;;;;;;;;;;11.40;99.90;;;;;;5089830;28;20466;-64
2023/10/05 01:18:45;;;;;;;19.85;7.30;;;11.40;99.90;;;;;;5083960;28;19916;-57
2023/10/05 01:21:11;;;;;;;;;;;11.30;99.90;;;;;;5088022;28;20036;-61
2023/10/05 01:23:41;;;;;;;24.35;6.65;;;11.30;99.90;;;;;;5081233;28;19916;-62
2023/10/05 01:26:10;;;;;;;23.08;6.95;;;11.30;99.90;;;;;;5082954;28;20039;-63
2023/10/05 01:28:38;;;;;;;22.70;7.35;;;11.30;99.90;;;;;;5075597;28;20048;-60
2023/10/05 01:31:07;;;;;;;19.85;7.35;;;11.30;99.90;;;;;;5082381;28;20043;-62
2023/10/05 01:33:34;;;;;;;17.60;7.32;;;11.30;99.90;;;;;;5081088;28;20044;-62
2023/10/05 01:35:59;;;;;;;17.08;6.63;;;11.30;99.90;;;;;;5086270;28;20036;-62
2023/10/05 01:38:25;;;;;;;;;;;11.30;99.90;;;;;;5084429;28;20506;-62
2023/10/05 01:40:54;;;;;;;19.45;7.05;;;11.20;99.90;;;;;;5087174;28;19959;-62
2023/10/05 01:43:20;;;;;;;17.60;6.97;;;11.20;99.90;;;;;;5086067;28;20036;-62
2023/10/05 01:45:45;;;;;;;;;;;11.20;99.90;;;;;;5089374;28;20480;-61
2023/10/05 01:48:18;;;;;;;19.08;6.13;;;11.20;99.90;;;;;;5079794;28;19916;-63
2023/10/05 01:50:50;;;;;;;15.85;6.38;;;11.20;99.90;;;;;;5082345;28;20092;-63
2023/10/05 01:53:17;;;;;;;17.63;5.68;;;11.20;99.90;;;;;;5084465;28;20115;-62
2023/10/05 01:55:45;;;;;;;22.00;6.35;;;11.20;99.90;;;;;;5072634;28;20036;-62
2023/10/05 01:58:22;;;;;;;13.25;5.30;;;11.20;99.90;;;;;;5074125;28;20419;-62
2023/10/05 02:00:48;;;;;;;18.75;6.07;;;11.20;99.90;;;;;;5085495;28;20100;-63
2023/10/05 02:03:14;;;;;;;;;;;11.20;99.90;;;;;;5080267;28;20035;-63
2023/10/05 02:05:39;;;;;;;16.27;5.15;;;11.20;99.90;;;;;;5088345;28;19924;-62
2023/10/05 02:08:05;;;;;;;;;;;11.20;99.90;;;;;;5082767;28;20036;-61
2023/10/05 02:10:39;;;;;;;18.23;6.20;;;11.20;99.90;;;;;;5084598;28;19916;-65
2023/10/05 02:13:12;;;;;;;24.65;6.15;;;11.20;99.90;;;;;;5083425;28;20043;-60
2023/10/05 02:15:54;;;;;;;17.13;5.30;;;11.20;99.90;;;;;;5088051;28;20047;-63
2023/10/05 02:18:31;;;;;;;17.20;5.43;;;11.20;99.90;;;;;;5079739;28;20039;-60
2023/10/05 02:21:08;;;;;;;14.82;5.18;;;11.20;99.90;;;;;;5083213;28;20039;-64
2023/10/05 02:23:40;;;;;;;22.15;6.10;;;11.20;99.90;;;;;;5084060;28;20183;-62
2023/10/05 02:26:23;;;;;;;16.90;5.85;;;11.10;99.90;;;;;;5080109;28;20040;-64
2023/10/05 02:28:49;;;;;;;17.98;5.88;;;11.10;99.90;;;;;;5077057;28;20044;-63
2023/10/05 02:31:15;;;;;;;13.77;5.03;;;11.10;99.90;;;;;;5080405;28;20094;-63
2023/10/05 02:33:43;;;;;;;;;;;11.10;99.90;;;;;;5081192;28;20047;-59
2023/10/05 02:36:11;;;;;;;12.52;4.70;;;11.00;99.90;;;;;;5079796;28;19963;-63
2023/10/05 02:38:48;;;;;;;15.13;4.72;;;11.00;99.90;;;;;;5083671;28;20043;-63
2023/10/05 02:41:25;;;;;;;16.83;4.63;;;11.00;99.90;;;;;;5085121;28;20071;-62
2023/10/05 02:43:53;;;;;;;12.77;5.32;;;11.00;99.90;;;;;;5082649;28;20036;-62
2023/10/05 02:46:20;;;;;;;12.88;5.28;;;11.00;99.90;;;;;;5087991;28;20545;-62
2023/10/05 02:48:47;;;;;;;11.27;4.75;;;11.00;99.90;;;;;;5077833;28;20115;-63
2023/10/05 02:51:15;;;;;;;13.73;4.57;;;11.00;99.90;;;;;;5088463;28;20088;-63
2023/10/05 02:53:41;;;;;;;17.45;5.70;;;10.90;99.90;;;;;;5075888;28;20067;-62
2023/10/05 02:56:20;;;;;;;;;;;11.00;99.90;;;;;;5088472;28;20063;-62
2023/10/05 02:58:48;;;;;;;15.15;4.93;;;10.90;99.90;;;;;;5074670;28;19919;-62
2023/10/05 03:01:15;;;;;;;20.48;5.75;;;10.90;99.90;;;;;;5080498;28;20035;-60
2023/10/05 03:03:43;;;;;;;15.75;5.57;;;10.90;99.90;;;;;;5075599;28;20051;-62
2023/10/05 03:06:10;;;;;;;14.20;5.65;;;10.90;99.90;;;;;;5073488;28;20075;-63
2023/10/05 03:08:36;;;;;;;19.30;4.95;;;10.90;99.90;;;;;;5081875;28;20044;-62
2023/10/05 03:11:04;;;;;;;18.23;5.75;;;10.90;99.90;;;;;;5082309;28;20042;-63
2023/10/05 03:13:30;;;;;;;14.25;5.97;;;10.90;99.90;;;;;;5081070;28;20119;-61
2023/10/05 03:15:56;;;;;;;13.02;5.65;;;10.90;99.90;;;;;;5083666;28;20048;-62
2023/10/05 03:18:25;;;;;;;;;;;10.90;99.90;;;;;;5084888;28;20522;-62
2023/10/05 03:21:12;;;;;;;12.60;4.03;;;11.00;99.90;;;;;;5074589;28;20493;-62
2023/10/05 03:23:40;;;;;;;12.85;4.97;;;11.00;99.90;;;;;;5071278;28;20550;-62
2023/10/05 03:26:11;;;;;;;13.40;5.15;;;10.90;99.90;;;;;;5076599;28;20043;-58
2023/10/05 03:28:37;;;;;;;16.05;5.68;;;11.00;99.90;;;;;;5079710;28;20036;-62
2023/10/05 03:31:12;;;;;;;15.27;5.10;;;11.00;99.90;;;;;;5083251;28;20046;-61
2023/10/05 03:33:39;;;;;;;16.73;5.20;;;11.00;99.90;;;;;;5083337;28;20036;-63
2023/10/05 03:36:13;;;;;;;10.63;4.07;;;11.00;99.90;;;;;;5086747;28;20052;-63
2023/10/05 03:38:41;;;;;;;13.57;4.60;;;11.00;99.90;;;;;;5084000;28;20063;-63
2023/10/05 03:41:13;;;;;;;14.98;4.20;;;10.90;99.90;;;;;;5083956;28;20850;-61
2023/10/05 03:43:41;;;;;;;17.00;5.18;;;11.00;99.90;;;;;;5084925;28;20048;-62
2023/10/05 03:46:06;;;;;;;17.15;5.57;;;10.90;99.90;;;;;;5072532;28;20040;-61
2023/10/05 03:48:38;;;;;;;;;;;10.90;99.90;;;;;;5080811;28;20438;-62
2023/10/05 03:51:08;;;;;;;23.05;5.57;;;10.90;99.90;;;;;;5082670;28;19919;-63
2023/10/05 03:53:34;;;;;;;10.10;3.97;;;10.90;99.90;;;;;;5082484;28;20059;-59
2023/10/05 03:55:59;;;;;;;;;;;10.90;99.90;;;;;;5083687;28;20113;-61
2023/10/05 03:58:25;;;;;;;12.20;5.00;;;10.90;99.90;;;;;;5084845;28;20033;-63
2023/10/05 04:00:50;;;;;;;;;;;10.90;99.90;;;;;;5082717;28;20496;-63
2023/10/05 04:03:19;;;;;;;20.67;4.85;;;10.90;99.90;;;;;;5079055;28;20444;-59
2023/10/05 04:05:44;;;;;;;11.13;3.90;;;10.90;99.90;;;;;;5086431;28;20052;-63
2023/10/05 04:08:16;;;;;;;;;;;10.90;99.90;;;;;;5083026;28;20035;-63
2023/10/05 04:10:49;;;;;;;18.48;5.03;;;10.90;99.90;;;;;;5083015;28;19920;-62
2023/10/05 04:13:17;;;;;;;11.15;3.85;;;10.90;99.90;;;;;;5080690;28;20040;-63
2023/10/05 04:15:43;;;;;;;12.43;4.88;;;10.80;99.90;;;;;;5082566;28;20500;-62
2023/10/05 04:18:13;;;;;;;;;;;10.90;99.90;;;;;;5086871;28;20047;-59
2023/10/05 04:20:43;;;;;;;17.67;4.50;;;10.80;99.90;;;;;;5087391;28;19919;-60
2023/10/05 04:23:10;;;;;;;11.48;4.55;;;10.90;99.90;;;;;;5082824;28;20408;-62
2023/10/05 04:25:35;;;;;;;12.48;4.80;;;10.90;99.90;;;;;;5079612;28;20056;-63
2023/10/05 04:28:01;;;;;;;;;;;10.80;99.90;;;;;;5078669;28;20032;-63
2023/10/05 04:30:27;;;;;;;11.27;4.25;;;10.90;99.90;;;;;;5077198;28;20406;-61
2023/10/05 04:32:53;;;;;;;11.93;4.38;;;10.90;99.90;;;;;;5086170;28;20028;-59
2023/10/05 04:37:49;;;;;;;15.38;4.65;;;10.90;99.90;;;;;;5085543;28;19927;-60
2023/10/05 04:40:16;;;;;;;14.68;4.47;;;10.90;99.90;;;;;;5085880;28;20051;-62
2023/10/05 04:42:42;;;;;;;14.27;5.10;;;10.90;99.90;;;;;;5087081;28;20112;-61
2023/10/05 04:45:14;;;;;;;;;;;10.90;99.90;;;;;;5090902;28;20479;-61
2023/10/05 04:47:40;;;;;;;12.73;4.13;;;10.90;99.90;;;;;;5085550;28;19927;-61
2023/10/05 04:50:06;;;;;;;;;;;10.90;99.90;;;;;;5086141;28;20428;-62
2023/10/05 04:52:33;;;;;;;12.57;3.85;;;10.90;99.90;;;;;;5086391;28;19971;-61
2023/10/05 04:55:14;;;;;;;10.95;4.38;;;10.90;99.90;;;;;;5084528;28;20043;-60
2023/10/05 04:57:49;;;;;;;13.07;4.82;;;10.90;99.90;;;;;;5084784;28;20047;-59
2023/10/05 05:00:49;;;;;;;12.90;5.05;;;10.90;99.90;;;;;;5079730;28;20048;-62
2023/10/05 05:06:10;;;;;;;13.25;4.63;;;10.90;99.90;;;;;;5074420;28;20071;-61
2023/10/05 05:08:40;;;;;;;10.85;4.57;;;10.80;99.90;;;;;;5084757;28;20109;-62
2023/10/05 05:11:19;;;;;;;12.02;4.45;;;10.80;99.90;;;;;;5085254;28;20032;-61
2023/10/05 05:13:46;;;;;;;12.85;4.43;;;10.90;99.90;;;;;;5080532;28;20040;-62
2023/10/05 05:16:14;;;;;;;18.15;4.53;;;10.90;99.90;;;;;;5074171;28;20123;-62
2023/10/05 05:18:41;;;;;;;15.85;5.30;;;10.90;99.90;;;;;;5076925;28;20487;-62
2023/10/05 05:21:13;;;;;;;14.65;4.18;;;10.90;99.90;;;;;;5081181;28;20039;-61
2023/10/05 05:23:42;;;;;;;17.92;4.72;;;10.90;99.90;;;;;;5080106;28;20105;-60
2023/10/05 05:26:11;;;;;;;15.25;4.65;;;10.80;99.90;;;;;;5077971;28;20059;-61
2023/10/05 05:28:38;;;;;;;12.98;4.60;;;10.90;99.90;;;;;;5075355;28;20051;-62
2023/10/05 05:31:07;;;;;;;15.25;5.20;;;10.80;99.90;;;;;;5077584;27;20040;-64
2023/10/05 05:33:36;;;;;;;12.55;4.50;;;10.80;99.90;;;;;;5086454;28;20488;-62
2023/10/05 05:36:11;;;;;;;13.02;4.47;;;10.80;99.90;;;;;;5080498;28;20055;-60
2023/10/05 05:38:38;;;;;;;13.20;4.88;;;10.90;99.90;;;;;;5082782;28;20127;-61
2023/10/05 05:41:19;;;;;;;14.48;4.40;;;10.80;99.90;;;;;;5085747;28;20040;-59
2023/10/05 05:43:45;;;;;;;14.07;4.22;;;10.80;99.90;;;;;;5079938;28;20062;-62
2023/10/05 05:46:13;;;;;;;16.02;4.85;;;10.80;99.90;;;;;;5088674;28;20044;-62
2023/10/05 05:48:42;;;;;;;11.80;4.30;;;10.80;99.90;;;;;;5081024;28;20050;-65
2023/10/05 05:51:15;;;;;;;11.38;4.18;;;10.90;99.90;;;;;;5087542;28;20036;-65
2023/10/05 05:53:47;;;;;;;13.38;4.45;;;10.90;99.90;;;;;;5074891;28;20135;-64
2023/10/05 05:56:19;;;;;;;13.55;3.90;;;10.90;99.90;;;;;;5083724;28;20044;-62
2023/10/05 05:58:46;;;;;;;10.25;5.03;;;10.90;99.90;;;;;;5076323;28;20048;-63
2023/10/05 06:01:15;;;;;;;14.73;5.18;;;10.90;99.90;;;;;;5084240;27;20035;-63
2023/10/05 06:03:43;;;;;;;16.30;4.75;;;10.90;99.90;;;;;;5075032;28;20053;-63
2023/10/05 06:06:09;;;;;;;17.20;5.10;;;10.80;99.90;;;;;;5083344;28;20088;-63
2023/10/05 06:08:35;;;;;;;;;;;10.90;99.90;;;;;;5084377;28;20476;-63
2023/10/05 06:11:06;;;;;;;13.52;4.90;;;10.90;99.90;;;;;;5075011;28;19919;-63
2023/10/05 06:13:36;;;;;;;12.60;4.22;;;10.90;99.90;;;;;;5078960;28;20695;-63
2023/10/05 06:16:09;;;;;;;11.15;4.60;;;11.00;99.90;;;;;;5070331;28;20056;-63
2023/10/05 06:18:38;;;;;;;13.40;4.90;;;11.00;99.90;;;;;;5076205;28;20512;-63
2023/10/05 06:21:04;;;;;;;12.55;4.55;;;11.00;99.90;;;;;;5076620;28;20040;-63
2023/10/05 06:23:34;;;;;;;16.40;5.07;;;11.00;99.90;;;;;;5080340;28;20116;-63
2023/10/05 06:26:03;;;;;;;15.32;5.00;;;11.00;99.90;;;;;;5077159;28;20101;-62
2023/10/05 06:28:29;;;;;;;14.43;4.63;;;11.10;99.90;;;;;;5078757;28;20059;-61
2023/10/05 06:30:56;;;;;;;11.93;4.60;;;11.00;99.90;;;;;;5083911;27;20044;-61
2023/10/05 06:33:22;;;;;;;10.82;4.10;;;11.00;99.90;;;;;;5080492;28;20127;-61
2023/10/05 06:35:48;;;;;;;;;;;11.10;99.90;;;;;;5082508;28;20131;-61
2023/10/05 06:38:15;;;;;;;11.55;4.07;;;11.10;99.90;;;;;;5081780;28;19969;-62
2023/10/05 06:40:41;;;;;;;10.32;4.35;;;11.10;99.90;;;;;;5078499;28;20047;-62
2023/10/05 06:43:07;;;;;;;;;;;11.10;99.90;;;;;;5078074;28;20032;-62
2023/10/05 06:45:35;;;;;;;10.18;3.72;;;11.20;99.90;;;;;;5085525;28;19938;-63
2023/10/05 06:48:02;;;;;;;14.77;4.03;;;11.20;99.90;;;;;;5083156;28;20307;-61
2023/10/05 06:50:27;;;;;;;13.10;4.32;;;11.20;99.90;;;;;;5083380;28;20070;-61
2023/10/05 06:52:53;;;;;;;;;;;11.20;99.90;;;;;;5082191;28;20483;-62
2023/10/05 06:55:21;;;;;;;10.98;3.95;;;11.20;99.90;;;;;;5072674;28;19969;-59
2023/10/05 06:57:49;;;;;;;12.60;3.78;;;11.20;99.90;;;;;;5078037;28;20071;-59
2023/10/05 07:00:17;;;;;;;15.10;4.20;;;11.20;99.90;;;;;;5075702;28;20210;-61
2023/10/05 07:02:46;;;;;;;13.02;4.82;;;11.20;99.90;;;;;;5074661;27;20495;-61
2023/10/05 07:05:12;;;;;;;11.80;4.28;;;11.30;99.90;;;;;;5078408;28;20094;-61
2023/10/05 07:07:40;;;;;;;14.48;4.28;;;11.30;99.90;;;;;;5083183;28;20040;-62
2023/10/05 07:10:07;;;;;;;15.40;4.28;;;11.30;99.90;;;;;;5085743;28;20491;-61
2023/10/05 07:12:46;;;;;;;12.43;4.45;;;11.20;99.90;;;;;;5078433;28;20120;-63
2023/10/05 07:15:23;;;;;;;15.95;4.78;;;11.30;99.90;;;;;;5075063;28;20047;-62
2023/10/05 07:17:48;;;;;;;;;;;11.30;99.90;;;;;;5084665;28;20032;-62
2023/10/05 07:20:17;;;;;;;13.15;4.55;;;11.30;99.90;;;;;;5074570;28;19926;-62
2023/10/05 07:22:44;;;;;;;13.25;4.35;;;11.40;99.90;;;;;;5076072;28;20040;-64
2023/10/05 07:25:10;;;;;;;12.80;4.35;;;11.40;99.90;;;;;;5084792;28;20105;-63
2023/10/05 07:27:37;;;;;;;13.18;4.18;;;11.40;99.90;;;;;;5078813;28;20040;-63
2023/10/05 07:30:04;;;;;;;7.07;3.58;;;11.40;99.90;;;;;;5087994;28;20052;-62
2023/10/05 07:32:34;;;;;;;11.20;3.42;;;11.40;99.90;;;;;;5083362;28;20449;-62
2023/10/05 07:35:00;;;;;;;11.02;4.35;;;11.50;99.90;;;;;;5090540;28;20044;-63
2023/10/05 07:37:26;;;;;;;13.30;4.32;;;11.50;99.90;;;;;;5079747;28;20052;-63
2023/10/05 07:39:52;;;;;;;;;;;11.50;99.90;;;;;;5085031;28;20032;-63
2023/10/05 07:42:17;;;;;;;11.77;4.60;;;11.50;99.90;;;;;;5082897;28;20011;-63
2023/10/05 07:44:44;;;;;;;9.82;3.75;;;11.50;99.90;;;;;;5087140;28;20036;-63
2023/10/05 07:47:12;;;;;;;;;;;11.50;99.90;;;;;;5078217;28;20115;-64
2023/10/05 07:49:39;;;;;;;9.18;3.58;;;11.50;99.90;;;;;;5087166;28;20379;-63
2023/10/05 07:52:09;;;;;;;11.50;3.42;;;11.50;99.90;;;;;;5076607;28;20036;-63
2023/10/05 07:54:37;;;;;;;9.95;3.58;;;11.60;99.90;;;;;;5086999;28;20123;-61
2023/10/05 07:57:10;;;;;;;11.52;3.58;;;11.60;99.90;;;;;;5081960;28;20048;-64
2023/10/05 07:59:42;;;;;;;17.00;5.18;;;11.60;99.90;;;;;;5082958;28;20062;-64
2023/10/05 08:02:10;;;;;;;13.32;4.13;;;11.60;99.90;;;;;;5086100;27;20039;-63
2023/10/05 08:04:37;;;;;;;14.40;4.63;;;11.60;99.90;;;;;;5082918;28;20036;-63
2023/10/05 08:07:03;;;;;;;15.80;5.13;;;11.60;99.90;;;;;;5085846;28;20036;-62
2023/10/05 08:09:29;;;;;;;16.23;4.35;;;11.70;99.90;;;;;;5081908;28;20170;-63
2023/10/05 08:11:57;;;;;;;10.10;3.75;;;11.70;99.90;;;;;;5070259;28;20043;-63
2023/10/05 08:14:26;;;;;;;10.75;3.80;;;11.70;99.90;;;;;;5087123;28;20063;-64
2023/10/05 08:16:55;;;;;;;15.77;3.92;;;11.80;99.90;;;;;;5084381;28;20110;-63
2023/10/05 08:19:21;;;;;;;12.75;3.72;;;11.70;99.90;;;;;;5082366;28;20058;-64
2023/10/05 08:21:47;;;;;;;9.35;4.38;;;11.80;99.90;;;;;;5077248;28;20488;-64
2023/10/05 08:24:17;;;;;;;;;;;11.80;99.90;;;;;;5083879;28;20036;-64
2023/10/05 08:26:43;;;;;;;8.93;3.08;;;11.80;99.90;;;;;;5078697;28;19920;-64
2023/10/05 08:29:09;;;;;;;;;;;11.80;99.90;;;;;;5072310;28;20391;-63
2023/10/05 08:31:38;;;;;;;10.73;3.53;;;11.80;99.90;;;;;;5071066;27;19927;-63
2023/10/05 08:34:03;;;;;;;13.55;3.40;;;11.90;99.90;;;;;;5070449;28;20064;-63
2023/10/05 08:36:31;;;;;;;16.35;4.00;;;11.90;99.90;;;;;;5080885;28;20052;-64
2023/10/05 08:38:56;;;;;;;;;;;12.00;99.90;;;;;;5086296;28;20046;-63
2023/10/05 08:41:32;;;;;;;17.63;3.97;;;12.00;99.90;;;;;;5088868;28;20054;-63
2023/10/05 08:43:59;;;;;;;12.98;3.88;;;12.00;99.90;;;;;;5074295;28;20123;-63
2023/10/05 08:46:27;;;;;;;13.55;3.33;;;11.90;99.90;;;;;;5079969;28;20185;-65
2023/10/05 08:48:55;;;;;;;21.90;4.05;;;11.90;99.90;;;;;;5083789;28;20047;-64
2023/10/05 08:51:24;;;;;;;9.57;3.22;;;11.90;99.90;;;;;;5082082;28;20152;-64
2023/10/05 08:53:54;;;;;;;7.88;3.40;;;12.00;99.90;;;;;;5082892;28;20110;-64
2023/10/05 08:56:21;;;;;;;10.68;4.07;;;12.10;99.90;;;;;;5075136;28;20511;-64
2023/10/05 08:58:48;;;;;;;13.00;3.83;;;12.00;99.90;;;;;;5084671;28;20058;-63
2023/10/05 09:01:27;;;;;;;12.40;3.58;;;12.10;99.90;;;;;;5084194;28;20048;-63
2023/10/05 09:06:52;;;;;;;8.38;4.90;;;12.10;99.90;;;;;;5049919;28;20063;-64
2023/10/05 09:09:35;;;;;;;14.00;4.57;;;12.20;99.90;;;;;;5077919;28;20385;-64
2023/10/05 09:12:18;;;;;;;14.57;4.07;;;12.20;99.90;;;;;;5086835;28;20070;-64
2023/10/05 09:14:46;;;;;;;9.85;4.30;;;12.30;99.90;;;;;;5081108;28;20085;-64
2023/10/05 09:17:15;;;;;;;15.25;4.35;;;12.30;99.90;;;;;;5087119;28;20075;-64
2023/10/05 09:19:43;;;;;;;12.40;4.45;;;12.30;99.90;;;;;;5087517;28;20075;-64
2023/10/05 09:24:34;;;;;;;;;;;12.40;99.90;;;;;;5087517;28;20543;-64
2023/10/05 09:27:13;;;;;;;12.25;3.78;;;12.40;99.90;;;;;;5084895;28;20383;-63
2023/10/05 09:29:41;;;;;;;9.13;3.78;;;12.40;99.90;;;;;;5083147;28;20542;-64
2023/10/05 09:32:21;;;;;;;12.40;4.00;;;12.50;99.90;;;;;;5083992;28;20139;-64
2023/10/05 09:34:49;;;;;;;15.85;4.20;;;12.50;99.90;;;;;;5081190;28;20043;-63
2023/10/05 09:37:16;;;;;;;13.13;3.55;;;12.60;99.90;;;;;;5085998;28;20511;-64
2023/10/05 09:39:46;;;;;;;12.45;4.25;;;12.60;99.90;;;;;;5086331;28;20036;-63
2023/10/05 09:42:16;;;;;;;16.98;3.88;;;12.60;99.90;;;;;;5078567;28;20518;-63
2023/10/05 09:44:53;;;;;;;8.13;3.40;;;12.70;99.90;;;;;;5087611;28;20039;-63
2023/10/05 09:47:27;;;;;;;11.10;4.05;;;12.70;99.90;;;;;;5076035;28;20060;-64
2023/10/05 09:49:55;;;;;;;8.55;3.38;;;12.70;99.90;;;;;;5083481;28;20036;-64
2023/10/05 09:52:45;;;;;;;8.52;2.88;;;12.70;99.90;;;;;;5086139;28;20038;-64
2023/10/05 09:55:17;;;;;;;14.00;4.25;;;12.70;99.90;;;;;;5079387;28;20082;-64
2023/10/05 09:57:46;;;;;;;11.95;3.70;;;12.80;99.90;;;;;;5073662;28;20071;-63
2023/10/05 10:02:58;;;;;;;13.63;3.33;;;12.80;99.90;;;;;;5072689;28;20044;-64
2023/10/05 10:05:29;;;;;;;16.23;4.78;;;12.80;99.90;;;;;;5082759;28;20052;-63
2023/10/05 10:07:59;;;;;;;15.02;4.32;;;12.70;99.90;;;;;;5082193;28;20126;-64
2023/10/05 10:10:29;;;;;;;9.68;2.85;;;12.80;99.90;;;;;;5080405;28;20048;-64
2023/10/05 10:12:56;;;;;;;12.10;3.83;;;12.80;99.90;;;;;;5072331;28;20091;-65
2023/10/05 10:15:33;;;;;;;10.32;3.80;;;12.80;99.90;;;;;;5066966;28;20041;-64
2023/10/05 10:18:06;;;;;;;12.60;3.33;;;12.90;99.90;;;;;;5073157;28;20044;-62
2023/10/05 10:20:35;;;;;;;14.30;3.70;;;12.90;99.90;;;;;;5079756;28;20044;-63
2023/10/05 10:23:35;;;;;;;14.23;3.97;;;12.90;99.90;;;;;;5075020;28;20040;-62
2023/10/05 10:26:20;;;;;;;10.75;3.58;;;13.00;99.90;;;;;;5068390;28;20041;-64
2023/10/05 10:28:56;;;;;;;10.90;3.22;;;12.90;99.90;;;;;;5071554;28;20048;-65
2023/10/05 10:31:30;;;;;;;8.68;2.50;;;12.90;99.90;;;;;;5080401;27;20430;-66
2023/10/05 10:34:05;;;;;;;10.43;3.00;;;13.00;99.90;;;;;;5083352;28;20093;-65
2023/10/05 10:36:51;;;;;;;10.20;3.60;;;13.00;99.90;;;;;;5085785;28;20462;-65
2023/10/05 10:39:26;;;;;;;9.30;3.10;;;13.20;99.90;;;;;;5079763;28;20072;-64
2023/10/05 10:42:05;;;;;;;8.48;2.88;;;13.10;99.90;;;;;;5084332;28;20418;-65
2023/10/05 10:47:16;;;;;;;9.43;2.70;;;13.20;99.90;;;;;;5077640;28;20048;-65
2023/10/05 10:50:10;;;;;;;12.32;2.80;;;13.20;99.90;;;;;;5081831;28;20048;-64
2023/10/05 10:52:36;;;;;;;7.15;2.58;;;13.20;99.90;;;;;;5080228;28;20040;-62
2023/10/05 10:55:01;;;;;;;;;;;13.20;99.90;;;;;;5084653;28;20032;-62
2023/10/05 10:57:28;;;;;;;4.88;2.25;;;13.30;99.90;;;;;;5072695;28;19920;-63
2023/10/05 11:00:44;;;;;;;8.45;2.58;;;13.30;99.90;;;;;;5070788;28;20051;-63
2023/10/05 11:02:39;;;;;;;9.13;2.67;;;13.30;99.90;;;;;;5070520;27;20036;-63
2023/10/05 11:05:05;;;;;;;;;;;13.30;99.90;;;;;;5079652;28;20488;-63
2023/10/05 11:07:34;;;;;;;5.45;2.20;;;13.40;99.90;;;;;;5074769;28;20493;-63
2023/10/05 11:10:03;;;;;;;9.32;2.75;;;13.50;99.90;;;;;;5074258;28;20357;-63
2023/10/05 11:12:29;;;;;;;7.60;2.13;;;13.50;99.90;;;;;;5076105;28;20051;-67
2023/10/05 11:15:08;;;;;;;;;;;13.40;99.90;;;;;;5079350;28;20227;-63
2023/10/05 11:17:44;;;;;;;7.40;2.15;;;13.40;99.90;;;;;;5108471;28;20384;-63
2023/10/05 11:20:33;;;;;;;7.10;2.67;;;13.30;99.90;;;;;;5075640;28;20056;-63
2023/10/05 11:23:03;;;;;;;8.48;2.55;;;13.30;99.90;;;;;;5075466;28;20805;-64
2023/10/05 11:25:32;;;;;;;16.58;3.58;;;13.40;99.90;;;;;;5081461;28;20081;-64
2023/10/05 11:27:59;;;;;;;5.97;2.28;;;13.30;99.90;;;;;;5076893;28;20044;-64
2023/10/05 11:30:45;;;;;;;12.68;2.80;;;13.30;99.90;;;;;;5067187;27;20135;-64
2023/10/05 11:33:17;;;;;;;6.15;2.53;;;13.50;99.90;;;;;;5073243;28;20110;-65
2023/10/05 11:35:48;;;;;;;7.65;2.67;;;13.50;99.90;;;;;;5077811;28;20502;-64
2023/10/05 11:38:16;;;;;;;8.90;2.83;;;13.50;99.90;;;;;;5083585;28;20114;-64
2023/10/05 11:40:53;;;;;;;9.43;2.53;;;13.50;99.90;;;;;;5083535;28;20032;-62
2023/10/05 11:43:22;;;;;;;8.18;2.13;;;13.60;99.90;;;;;;5071416;28;20044;-64
2023/10/05 11:48:55;;;;;;;9.40;2.50;;;13.70;99.90;;;;;;5069667;28;20372;-63
2023/10/05 11:51:42;;;;;;;8.98;2.30;;;13.70;99.90;;;;;;5074241;28;20124;-63
2023/10/05 11:54:12;;;;;;;18.20;2.77;;;13.70;99.90;;;;;;5070293;28;20042;-65
2023/10/05 11:56:40;;;;;;;8.52;2.47;;;13.60;99.90;;;;;;5073475;28;20535;-64
2023/10/05 11:59:08;;;;;;;7.93;2.47;;;13.60;99.90;;;;;;5077686;28;20040;-65
2023/10/05 12:01:34;;;;;;;19.48;2.97;;;13.70;99.90;;;;;;5085731;27;20074;-64
2023/10/05 12:04:04;;;;;;;;;;;13.70;99.90;;;;;;5080476;28;20125;-64
2023/10/05 12:06:30;;;;;;;6.93;2.35;;;13.90;99.90;;;;;;5075300;28;19972;-65
2023/10/05 12:09:27;;;;;;;8.57;2.55;;;13.90;99.90;;;;;;5062156;28;20047;-65
2023/10/05 12:11:58;;;;;;;11.88;2.95;;;13.90;99.90;;;;;;5081740;28;20048;-64
2023/10/05 12:14:26;;;;;;;7.80;2.35;;;13.90;99.90;;;;;;5079726;28;20042;-65
2023/10/05 12:16:56;;;;;;;8.07;2.58;;;13.90;99.90;;;;;;5082343;28;20047;-65
2023/10/05 12:19:28;;;;;;;8.07;2.58;;;13.90;99.90;;;;;;5078497;28;20044;-65
2023/10/05 12:21:55;;;;;;;12.85;2.80;;;13.90;99.90;;;;;;5086296;28;20032;-64
2023/10/05 12:24:21;;;;;;;6.93;2.00;;;13.90;99.90;;;;;;5083747;28;20040;-64
2023/10/05 12:26:47;;;;;;;10.57;2.78;;;13.90;99.90;;;;;;5085471;28;20048;-62
2023/10/05 12:29:13;;;;;;;;;;;13.90;99.90;;;;;;5085476;28;20043;-63
2023/10/05 12:31:46;;;;;;;10.70;2.83;;;13.90;99.90;;;;;;5085742;28;19977;-63
2023/10/05 12:34:15;;;;;;;6.15;1.80;;;13.90;99.90;;;;;;5075227;28;20075;-63
2023/10/05 12:36:51;;;;;;;6.10;2.17;;;13.90;99.90;;;;;;5089595;28;20050;-63
2023/10/05 12:39:20;;;;;;;9.82;2.05;;;14.10;99.90;;;;;;5076473;28;20055;-63
2023/10/05 12:41:48;;;;;;;7.90;2.00;;;14.20;99.90;;;;;;5083789;28;20040;-63
2023/10/05 12:44:14;;;;;;;7.43;2.28;;;14.30;99.90;;;;;;5080280;28;20040;-63
2023/10/05 12:46:47;;;;;;;5.57;2.25;;;14.40;99.90;;;;;;5088025;28;20052;-63
2023/10/05 12:49:14;;;;;;;5.05;2.03;;;14.50;99.90;;;;;;5076408;28;20111;-63
2023/10/05 12:51:41;;;;;;;13.98;2.22;;;14.50;99.90;;;;;;5081674;28;20043;-63
2023/10/05 12:54:28;;;;;;;9.85;2.28;;;14.50;99.90;;;;;;5083052;28;20399;-64
2023/10/05 12:56:54;;;;;;;8.80;2.05;;;14.40;99.90;;;;;;5081315;28;20048;-63
2023/10/05 12:59:20;;;;;;;8.27;2.22;;;14.40;99.90;;;;;;5078270;28;20047;-64
2023/10/05 13:01:47;;;;;;;7.53;2.40;;;14.40;99.90;;;;;;5087552;28;20048;-62
2023/10/05 13:04:16;;;;;;;4.60;1.75;;;14.30;99.90;;;;;;5081046;28;20040;-63
2023/10/05 13:06:44;;;;;;;7.90;1.95;;;14.40;99.90;;;;;;5089302;28;20054;-63
2023/10/05 13:09:18;;;;;;;5.80;1.65;;;14.40;99.90;;;;;;5082415;28;20408;-63
2023/10/05 13:11:45;;;;;;;7.97;2.50;;;14.50;99.90;;;;;;5081920;28;20063;-63
2023/10/05 13:14:14;;;;;;;4.85;2.17;;;14.50;99.90;;;;;;5080934;28;20531;-63
2023/10/05 13:16:41;;;;;;;5.63;2.15;;;14.50;99.90;;;;;;5089924;28;20499;-63
2023/10/05 13:19:09;;;;;;;7.47;2.05;;;14.50;99.90;;;;;;5079729;28;20036;-63
2023/10/05 13:21:39;;;;;;;5.60;1.83;;;14.50;99.90;;;;;;5089371;28;20044;-62
2023/10/05 13:24:09;;;;;;;6.55;2.20;;;14.50;99.90;;;;;;5078139;28;20462;-63
2023/10/05 13:26:34;;;;;;;8.40;1.65;;;14.50;99.90;;;;;;5083138;28;20044;-63
2023/10/05 13:29:03;;;;;;;;;;;14.50;99.90;;;;;;5070768;28;20047;-63
2023/10/05 13:31:32;;;;;;;7.78;1.85;;;14.40;99.90;;;;;;5080944;28;19920;-63
2023/10/05 13:33:59;;;;;;;6.10;2.42;;;14.40;99.90;;;;;;5082164;28;20032;-63